This demonstration page uses our WeatherBlox Daily Observations layout. Learn more.

38.88101, -77.10428

Hourly Observations for October 6, 2016

Temp ( °F °C ) Dew Point ( °F °C ) Humidity (%) Winds ( mph kmh ) Pressure ( in mb ) Visibility ( mi km ) Precip ( " mm )
12:52 am 00:52 Clear 61 16.1 58 14.4 90 90 ENE 8 13 30.27 1025 10 16.09344 0 0
1:52 am 01:52 Mostly Cloudy 61 16.1 58 14.4 90 90 NNE 6 9 30.27 1025 10 16.09344 0 0
2:24 am 02:24 Cloudy 61 16 57 14 88 88 NE 5 7 30.27 1025 10 16.09344 0 0
2:52 am 02:52 Cloudy 61 16.1 58 14.4 90 90 NE 5 7 30.27 1025 10 16.09344 0 0
3:05 am 03:05 Cloudy 60 15.6 58 14.4 93 93 NE 8 13 30.27 1025 10 16.09344 0 0
3:52 am 03:52 Cloudy 61 16.1 58 14.4 90 90 N 7 11 30.27 1025 10 16.09344 0 0
4:52 am 04:52 Cloudy 61 16.1 58 14.4 90 90 ENE 8 13 30.27 1025 10 16.09344 0 0
5:52 am 05:52 Cloudy 61 16.1 58 14.4 90 90 ENE 9 15 30.27 1025 10 16.09344 0 0
6:52 am 06:52 Cloudy 61 16.1 58 14.4 90 90 NNE 9 15 30.3 1026 10 16.09344 0 0
7:52 am 07:52 Cloudy 61 16.1 58 14.4 90 90 NNE 10 17 30.3 1026 10 16.09344 0 0
8:52 am 08:52 Cloudy 62 16.7 57 13.9 84 84 NNE 12 19 30.3 1026 10 16.09344 0 0
9:52 am 09:52 Cloudy 64 17.8 58 14.4 81 81 NNE 8 13 30.33 1027 10 16.09344 0 0
10:52 am 10:52 Cloudy 64 17.8 59 15 84 84 NNE 7 11 30.33 1027 10 16.09344 0 0
11:11 am 11:11 Cloudy 65 18.3 60 15.6 84 84 NE 12 19 30.3 1026 10 16.09344 0 0
11:37 am 11:37 Cloudy 65 18.3 60 15.6 84 84 NE 9 15 30.3 1026 9 14.484096 0 0
11:52 am 11:52 Cloudy 65 18.3 60 15.6 84 84 NE 8 13 30.3 1026 10 16.09344 0 0
12:09 pm 12:09 Cloudy 66 18.9 60 15.6 81 81 NE 9 15 30.3 1026 10 16.09344 0 0
12:52 pm 12:52 Cloudy 67 19.4 60 15.6 79 79 NE 7 11 30.3 1026 10 16.09344 0 0
1:52 pm 13:52 Cloudy 69 20.6 60 15.6 73 73 NNE 5 7 30.3 1026 10 16.09344 0 0
2:52 pm 14:52 Cloudy 69 20.6 60 15.6 73 73 NNE 7 11 30.3 1026 10 16.09344 0 0
3:52 pm 15:52 Cloudy 69 20.6 60 15.6 73 73 NE 6 9 30.27 1025 10 16.09344 0 0
4:39 pm 16:39 Mostly Cloudy 69 20.6 60 15.6 73 73 NE 8 13 30.27 1025 10 16.09344 0 0
4:52 pm 16:52 Mostly Cloudy 69 20.6 60 15.6 73 73 NE 7 11 30.27 1025 10 16.09344 0 0
5:52 pm 17:52 Mostly Cloudy 70 21.1 60 15.6 71 71 NNE 6 9 30.27 1025 10 16.09344 0 0
6:52 pm 18:52 Partly Cloudy 68 20 60 15.6 76 76 NNE 5 7 30.27 1025 10 16.09344 0 0
7:52 pm 19:52 Mostly Cloudy 67 19.4 60 15.6 79 79 N 8 13 30.27 1025 10 16.09344 0 0
8:52 pm 20:52 Mostly Cloudy 66 18.9 60 15.6 81 81 N 6 9 30.27 1025 10 16.09344 0 0
9:52 pm 21:52 Mostly Cloudy 66 18.9 60 15.6 81 81 N 5 7 30.3 1026 10 16.09344 0 0
10:52 pm 22:52 Partly Cloudy 65 18.3 61 16.1 87 87 ENE 6 9 30.3 1026 10 16.09344 0 0
11:52 pm 23:52 Cloudy 66 18.9 61 16.1 84 84 ENE 5 7 30.27 1025 10 16.09344 0 0

Powered by AerisWeather